createdAt,value
2018-05-02T00:00:59.533Z,4.10
2018-05-02T00:01:59.533Z,4.00
2018-05-02T00:02:59.522Z,4.00
2018-05-02T00:03:59.515Z,3.90
2018-05-02T00:04:59.512Z,3.70
2018-05-02T00:05:59.505Z,3.90
2018-05-02T00:06:59.503Z,3.70
2018-05-02T00:07:59.495Z,3.80
2018-05-02T00:08:59.490Z,4.10
2018-05-02T00:09:59.484Z,4.00
2018-05-02T00:10:59.479Z,4.00
2018-05-02T00:11:59.476Z,3.90
2018-05-02T00:12:59.465Z,4.00
2018-05-02T00:13:59.462Z,4.40
2018-05-02T00:14:59.456Z,4.20
2018-05-02T00:15:59.450Z,4.00
2018-05-02T00:16:59.445Z,4.00
2018-05-02T00:17:59.495Z,4.20
2018-05-02T00:18:59.433Z,4.50
2018-05-02T00:19:59.428Z,4.10
2018-05-02T00:20:59.426Z,4.00
2018-05-02T00:21:59.419Z,4.00
2018-05-02T00:22:59.412Z,3.90
2018-05-02T00:23:59.406Z,3.90
2018-05-02T00:24:59.399Z,3.90
2018-05-02T00:25:59.396Z,3.90
2018-05-02T00:26:59.391Z,3.80
2018-05-02T00:27:59.383Z,3.90
2018-05-02T00:28:59.377Z,3.80
2018-05-02T00:29:59.373Z,4.20
2018-05-02T00:30:59.365Z,4.10
2018-05-02T00:31:59.364Z,4.40
2018-05-02T00:32:59.355Z,4.30
2018-05-02T00:33:59.429Z,4.10
2018-05-02T00:34:59.343Z,4.10
2018-05-02T00:35:59.343Z,4.30
2018-05-02T00:36:59.334Z,4.40
2018-05-02T00:37:59.330Z,4.30
2018-05-02T00:38:59.321Z,4.00
2018-05-02T00:39:59.317Z,4.00
2018-05-02T00:40:59.312Z,4.30
2018-05-02T00:41:59.305Z,4.10
2018-05-02T00:42:59.299Z,4.00
2018-05-02T00:43:59.293Z,4.10
2018-05-02T00:44:59.294Z,4.10
2018-05-02T00:45:59.284Z,4.00
2018-05-02T00:46:59.277Z,4.10
2018-05-02T00:47:59.271Z,4.20
2018-05-02T00:48:59.268Z,4.10
2018-05-02T00:49:59.261Z,4.20
2018-05-02T00:50:59.327Z,4.10
2018-05-02T00:51:59.249Z,4.10
2018-05-02T00:52:59.244Z,4.20
2018-05-02T00:53:59.239Z,4.40
2018-05-02T00:54:59.232Z,4.00
2018-05-02T00:55:59.226Z,4.20
2018-05-02T00:56:59.220Z,4.80
2018-05-02T00:57:59.215Z,5.10
2018-05-02T00:58:59.212Z,5.40
2018-05-02T00:59:59.207Z,5.30
2018-05-02T01:00:59.200Z,5.20
2018-05-02T01:01:59.193Z,5.00
2018-05-02T01:02:59.186Z,5.30
2018-05-02T01:03:59.186Z,4.80
2018-05-02T01:04:59.176Z,5.10
2018-05-02T01:05:59.165Z,4.80
2018-05-02T01:06:59.234Z,4.90
2018-05-02T01:07:59.161Z,4.50
2018-05-02T01:08:59.152Z,4.80
2018-05-02T01:09:59.147Z,4.80
2018-05-02T01:10:59.139Z,4.80
2018-05-02T01:11:59.136Z,4.60
2018-05-02T01:12:59.130Z,4.80
2018-05-02T01:13:59.124Z,5.00
2018-05-02T01:14:59.117Z,4.70
2018-05-02T01:15:59.109Z,4.70
2018-05-02T01:16:59.108Z,5.00
2018-05-02T01:17:59.101Z,5.30
2018-05-02T01:18:59.092Z,4.90
2018-05-02T01:19:59.088Z,4.90
2018-05-02T01:20:59.084Z,5.10
2018-05-02T01:21:59.079Z,5.20
2018-05-02T01:22:59.072Z,5.30
2018-05-02T01:23:59.065Z,5.10
2018-05-02T01:24:59.060Z,5.10
2018-05-02T01:25:59.054Z,5.20
2018-05-02T01:26:59.049Z,5.10
2018-05-02T01:27:59.046Z,4.90
2018-05-02T01:28:59.040Z,4.90
2018-05-02T01:29:59.031Z,5.00
2018-05-02T01:30:59.022Z,5.10
2018-05-02T01:31:59.023Z,4.90
2018-05-02T01:32:59.014Z,5.10
2018-05-02T01:33:59.008Z,5.50
2018-05-02T01:34:58.998Z,5.80
2018-05-02T01:35:58.996Z,5.60
2018-05-02T01:36:58.990Z,5.60
2018-05-02T01:37:58.986Z,5.40
2018-05-02T01:38:58.974Z,5.40
2018-05-02T01:39:58.975Z,5.60
2018-05-02T01:40:58.967Z,6.20
2018-05-02T01:41:58.967Z,5.50
2018-05-02T01:42:58.956Z,5.40
2018-05-02T01:43:58.950Z,5.50
2018-05-02T01:44:58.943Z,5.60
2018-05-02T01:45:58.938Z,5.40
2018-05-02T01:46:58.931Z,5.60
2018-05-02T01:47:58.927Z,5.40
2018-05-02T01:48:58.918Z,5.80
2018-05-02T01:49:58.915Z,5.60
2018-05-02T01:50:58.908Z,5.50
2018-05-02T01:51:58.900Z,5.40
2018-05-02T01:52:58.898Z,5.30
2018-05-02T01:53:58.889Z,5.60
2018-05-02T01:54:58.882Z,5.60
2018-05-02T01:55:58.879Z,5.40
2018-05-02T01:56:58.871Z,5.40
2018-05-02T01:57:58.866Z,5.20
2018-05-02T01:58:58.863Z,5.90
2018-05-02T01:59:58.854Z,5.90
2018-05-02T02:00:58.849Z,5.30
2018-05-02T02:01:58.840Z,5.60
2018-05-02T02:02:58.836Z,5.90
2018-05-02T02:03:58.827Z,5.20
2018-05-02T02:04:58.823Z,5.40
2018-05-02T02:05:58.819Z,5.40
2018-05-02T02:06:58.809Z,4.90
2018-05-02T02:07:58.803Z,5.30
2018-05-02T02:08:58.796Z,5.20
2018-05-02T02:09:58.792Z,5.40
2018-05-02T02:10:58.784Z,5.90
2018-05-02T02:11:58.780Z,6.40
2018-05-02T02:12:58.777Z,5.90
2018-05-02T02:13:58.768Z,5.90
2018-05-02T02:14:58.760Z,6.20
2018-05-02T02:15:58.755Z,6.60
2018-05-02T02:16:58.748Z,6.00
2018-05-02T02:17:58.747Z,5.60
2018-05-02T02:18:58.731Z,5.40
2018-05-02T02:19:58.733Z,5.40
2018-05-02T02:20:58.726Z,5.80
2018-05-02T02:21:58.720Z,6.00
2018-05-02T02:22:58.714Z,6.20
2018-05-02T02:23:58.707Z,6.10
2018-05-02T02:24:58.700Z,5.90
2018-05-02T02:25:58.694Z,6.20
2018-05-02T02:26:58.686Z,6.10
2018-05-02T02:27:58.684Z,5.50
2018-05-02T02:28:58.677Z,5.60
2018-05-02T02:29:58.676Z,5.60
2018-05-02T02:30:58.663Z,5.40
2018-05-02T02:31:58.660Z,5.50
2018-05-02T02:32:58.649Z,5.80
2018-05-02T02:33:58.751Z,5.90
2018-05-02T02:34:58.639Z,6.00
2018-05-02T02:35:58.633Z,6.20
2018-05-02T02:36:58.623Z,5.80
2018-05-02T02:37:58.618Z,5.40
2018-05-02T02:38:58.609Z,5.80
2018-05-02T02:39:58.607Z,5.90
2018-05-02T02:40:58.599Z,5.90
2018-05-02T02:41:58.600Z,6.00
2018-05-02T02:42:58.587Z,6.20
2018-05-02T02:43:58.585Z,6.20
2018-05-02T02:44:58.574Z,5.70
2018-05-02T02:45:58.569Z,6.40
2018-05-02T02:46:58.561Z,6.10
2018-05-02T02:47:58.554Z,6.10
2018-05-02T02:48:58.549Z,6.20
2018-05-02T02:49:58.542Z,5.70
2018-05-02T02:50:58.535Z,5.50
2018-05-02T02:51:58.528Z,5.60
2018-05-02T02:52:58.531Z,5.80
2018-05-02T02:53:58.517Z,5.80
2018-05-02T02:54:58.507Z,5.60
2018-05-02T02:55:58.502Z,5.60
2018-05-02T02:56:58.496Z,5.70
2018-05-02T02:57:58.488Z,5.80
2018-05-02T02:58:58.483Z,5.70
2018-05-02T02:59:58.478Z,5.50
2018-05-02T03:00:58.471Z,5.30
2018-05-02T03:01:58.462Z,5.60
2018-05-02T03:02:58.463Z,5.20
2018-05-02T03:03:58.457Z,5.40
2018-05-02T03:04:58.447Z,5.40
2018-05-02T03:05:58.439Z,5.30
2018-05-02T03:06:58.433Z,5.60
2018-05-02T03:07:58.424Z,5.80
2018-05-02T03:08:58.421Z,5.60
2018-05-02T03:09:58.410Z,5.70
2018-05-02T03:10:58.410Z,5.50
2018-05-02T03:11:58.399Z,5.20
2018-05-02T03:12:58.394Z,5.30
2018-05-02T03:13:58.384Z,5.40
2018-05-02T03:14:58.380Z,5.80
2018-05-02T03:15:58.372Z,5.90
2018-05-02T03:16:58.367Z,5.40
2018-05-02T03:17:58.358Z,5.70
2018-05-02T03:18:58.353Z,6.20
2018-05-02T03:19:58.348Z,6.40
2018-05-02T03:20:58.339Z,6.00
2018-05-02T03:21:58.330Z,6.10
2018-05-02T03:22:58.326Z,5.80
2018-05-02T03:23:58.316Z,5.60
2018-05-02T03:24:58.312Z,5.70
2018-05-02T03:25:58.305Z,5.60
2018-05-02T03:26:58.373Z,5.20
2018-05-02T03:27:58.294Z,5.30
2018-05-02T03:28:58.287Z,5.50
2018-05-02T03:29:58.279Z,5.40
2018-05-02T03:30:58.275Z,5.40
2018-05-02T03:31:58.268Z,5.80
2018-05-02T03:32:58.260Z,6.00
2018-05-02T03:33:58.250Z,6.00
2018-05-02T03:34:58.247Z,5.90
2018-05-02T03:35:58.241Z,6.50
2018-05-02T03:36:58.235Z,6.40
2018-05-02T03:37:58.230Z,6.80
2018-05-02T03:38:58.220Z,6.50
2018-05-02T03:39:58.211Z,7.00
2018-05-02T03:40:58.226Z,7.10
2018-05-02T03:41:58.201Z,6.20
2018-05-02T03:42:58.193Z,5.90
2018-05-02T03:43:58.187Z,5.90
2018-05-02T03:44:58.178Z,5.80
2018-05-02T03:45:58.174Z,5.70
2018-05-02T03:46:58.164Z,6.10
2018-05-02T03:47:58.161Z,6.00
2018-05-02T03:48:58.153Z,6.00
2018-05-02T03:49:58.147Z,6.10
2018-05-02T03:50:58.141Z,6.20
2018-05-02T03:51:58.133Z,5.90
2018-05-02T03:52:58.175Z,5.70
2018-05-02T03:53:58.119Z,5.80
2018-05-02T03:54:58.114Z,5.90
2018-05-02T03:55:58.106Z,6.10
2018-05-02T03:56:58.109Z,6.10
2018-05-02T03:57:58.098Z,6.30
2018-05-02T03:58:58.088Z,6.40
2018-05-02T03:59:58.081Z,6.50
2018-05-02T04:00:58.078Z,7.00
2018-05-02T04:01:58.069Z,7.00
2018-05-02T04:02:58.063Z,6.80
2018-05-02T04:03:58.054Z,6.60
2018-05-02T04:04:58.047Z,6.30
2018-05-02T04:05:58.043Z,6.10
2018-05-02T04:06:58.037Z,6.20
2018-05-02T04:07:58.026Z,6.00
2018-05-02T04:08:58.027Z,6.50
2018-05-02T04:09:58.015Z,6.40
2018-05-02T04:10:58.010Z,6.20
2018-05-02T04:11:58.000Z,6.40
2018-05-02T04:12:57.995Z,6.30
2018-05-02T04:13:57.988Z,6.10
2018-05-02T04:14:57.985Z,6.40
2018-05-02T04:15:57.974Z,6.30
2018-05-02T04:16:57.970Z,6.30
2018-05-02T04:17:57.964Z,6.20
2018-05-02T04:18:57.958Z,6.40
2018-05-02T04:19:57.948Z,6.70
2018-05-02T04:20:57.943Z,6.80
2018-05-02T04:21:57.938Z,6.90
2018-05-02T04:22:57.930Z,6.90
2018-05-02T04:23:57.922Z,6.40
2018-05-02T04:24:57.919Z,6.30
2018-05-02T04:25:57.922Z,6.10
2018-05-02T04:26:57.905Z,6.00
2018-05-02T04:27:57.899Z,5.80
2018-05-02T04:28:57.893Z,6.00
2018-05-02T04:29:57.887Z,6.20
2018-05-02T04:30:57.879Z,6.40
2018-05-02T04:31:57.882Z,6.50
2018-05-02T04:32:57.868Z,6.00
2018-05-02T04:33:57.862Z,6.40
2018-05-02T04:34:57.853Z,6.00
2018-05-02T04:35:57.862Z,5.80
2018-05-02T04:36:57.842Z,5.70
2018-05-02T04:37:57.837Z,6.00
2018-05-02T04:38:57.831Z,5.70
2018-05-02T04:39:57.828Z,6.00
2018-05-02T04:40:57.898Z,6.00
2018-05-02T04:41:57.815Z,7.10
2018-05-02T04:42:57.805Z,9.70
2018-05-02T04:43:57.801Z,9.40
2018-05-02T04:44:57.796Z,13.30
2018-05-02T04:45:57.788Z,9.60
2018-05-02T04:46:57.780Z,6.30
2018-05-02T04:47:57.779Z,5.90
2018-05-02T04:48:57.768Z,6.00
2018-05-02T04:49:57.764Z,6.60
2018-05-02T04:50:57.757Z,7.40
2018-05-02T04:51:57.752Z,6.50
2018-05-02T04:52:57.748Z,5.70
2018-05-02T04:53:57.742Z,5.70
2018-05-02T04:54:57.733Z,5.40
2018-05-02T04:55:57.734Z,5.40
2018-05-02T04:56:57.725Z,5.60
2018-05-02T04:57:57.729Z,5.40
2018-05-02T04:58:57.713Z,6.10
2018-05-02T04:59:57.708Z,5.30
2018-05-02T05:00:57.705Z,5.20
2018-05-02T05:01:57.722Z,5.30
2018-05-02T05:02:57.696Z,5.40
2018-05-02T05:03:57.690Z,5.80
2018-05-02T05:04:57.688Z,5.60
2018-05-02T05:05:57.681Z,6.50
2018-05-02T05:06:57.676Z,6.10
2018-05-02T05:07:57.670Z,6.10
2018-05-02T05:08:57.669Z,6.20
2018-05-02T05:09:57.661Z,6.20
2018-05-02T05:10:57.656Z,6.00
2018-05-02T05:11:57.654Z,6.40
2018-05-02T05:12:57.646Z,6.60
2018-05-02T05:13:57.645Z,6.10
2018-05-02T05:14:57.640Z,6.40
2018-05-02T05:15:57.633Z,5.80
2018-05-02T05:16:57.634Z,6.80
2018-05-02T05:17:57.624Z,6.50
2018-05-02T05:18:57.624Z,6.50
2018-05-02T05:19:57.621Z,6.30
2018-05-02T05:20:57.618Z,6.30
2018-05-02T05:21:57.620Z,6.30
2018-05-02T05:22:57.611Z,6.40
2018-05-02T05:23:57.609Z,6.20
2018-05-02T05:24:57.608Z,6.00
2018-05-02T05:25:57.605Z,5.10
2018-05-02T05:26:57.602Z,5.60
2018-05-02T05:27:57.602Z,5.50
2018-05-02T05:28:57.594Z,5.80
2018-05-02T05:29:57.595Z,4.60
2018-05-02T05:30:57.598Z,4.60
2018-05-02T05:31:57.590Z,4.70
2018-05-02T05:32:57.591Z,4.90
2018-05-02T05:33:57.595Z,5.10
2018-05-02T05:34:57.585Z,5.30
2018-05-02T05:35:57.588Z,5.00
2018-05-02T05:36:57.580Z,5.10
2018-05-02T05:37:57.577Z,5.10
2018-05-02T05:38:57.580Z,6.10
2018-05-02T05:39:57.574Z,7.20
2018-05-02T05:40:57.573Z,4.80
2018-05-02T05:41:57.567Z,4.90
2018-05-02T05:42:57.567Z,4.70
2018-05-02T05:43:57.569Z,4.70
2018-05-02T05:44:57.564Z,4.50
2018-05-02T05:45:57.564Z,4.40
2018-05-02T05:46:57.559Z,4.80
2018-05-02T05:47:57.558Z,4.60
2018-05-02T05:48:57.554Z,4.40
2018-05-02T05:49:57.553Z,4.50
2018-05-02T05:50:57.552Z,4.60
2018-05-02T05:51:57.545Z,4.60
2018-05-02T05:52:57.544Z,5.00
2018-05-02T05:53:57.570Z,4.70
2018-05-02T05:54:57.541Z,4.60
2018-05-02T05:55:57.541Z,4.60
2018-05-02T05:56:57.537Z,4.70
2018-05-02T05:57:57.538Z,4.60
2018-05-02T05:58:57.531Z,4.70
2018-05-02T05:59:57.527Z,4.70
2018-05-02T06:00:57.524Z,5.00
2018-05-02T06:01:57.525Z,4.90
2018-05-02T06:02:57.517Z,5.30
2018-05-02T06:03:57.520Z,5.20
2018-05-02T06:04:57.514Z,5.20
2018-05-02T06:05:57.511Z,5.10
2018-05-02T06:06:57.512Z,4.90
2018-05-02T06:07:57.506Z,4.80
2018-05-02T06:08:57.505Z,5.30
2018-05-02T06:09:57.505Z,4.70
2018-05-02T06:10:57.497Z,4.60
2018-05-02T06:11:57.495Z,4.50
2018-05-02T06:12:57.490Z,4.80
2018-05-02T06:13:57.489Z,4.90
2018-05-02T06:14:57.488Z,5.20
2018-05-02T06:15:57.480Z,4.80
2018-05-02T06:16:57.480Z,4.70
2018-05-02T06:17:57.477Z,4.80
2018-05-02T06:18:57.473Z,5.00
2018-05-02T06:19:57.471Z,4.80
2018-05-02T06:20:57.470Z,4.50
2018-05-02T06:21:57.551Z,4.40
2018-05-02T06:22:57.470Z,4.60
2018-05-02T06:23:57.460Z,4.70
2018-05-02T06:24:57.458Z,4.50
2018-05-02T06:25:57.456Z,4.80
2018-05-02T06:26:57.456Z,4.50
2018-05-02T06:27:57.448Z,4.40
2018-05-02T06:28:57.446Z,4.60
2018-05-02T06:29:57.444Z,4.60
2018-05-02T06:30:57.440Z,4.60
2018-05-02T06:31:57.506Z,4.60
2018-05-02T06:32:57.442Z,4.50
2018-05-02T06:33:57.453Z,4.70
2018-05-02T06:34:57.429Z,4.40
2018-05-02T06:35:57.646Z,4.50
2018-05-02T06:36:57.425Z,4.30
2018-05-02T06:37:57.446Z,4.60
2018-05-02T06:38:57.421Z,4.50
2018-05-02T06:39:57.419Z,4.60
2018-05-02T06:40:57.418Z,4.60
2018-05-02T06:41:57.421Z,4.60
2018-05-02T06:42:57.412Z,3.90
2018-05-02T06:43:57.410Z,3.90
2018-05-02T06:44:57.410Z,4.00
2018-05-02T06:45:57.406Z,4.00
2018-05-02T06:46:57.406Z,4.40
2018-05-02T06:47:57.404Z,4.30
2018-05-02T06:48:57.398Z,4.10
2018-05-02T06:49:57.396Z,4.40
2018-05-02T06:50:57.393Z,4.60
2018-05-02T06:51:57.408Z,4.50
2018-05-02T06:52:57.390Z,4.50
2018-05-02T06:53:57.389Z,4.30
2018-05-02T06:54:57.385Z,4.40
2018-05-02T06:55:57.382Z,4.50
2018-05-02T06:56:57.381Z,4.50
2018-05-02T06:57:57.383Z,5.00
2018-05-02T06:58:57.378Z,4.70
2018-05-02T06:59:57.377Z,4.90
2018-05-02T07:00:57.514Z,4.70
2018-05-02T07:01:57.374Z,4.50
2018-05-02T07:02:57.370Z,4.60
2018-05-02T07:03:57.368Z,4.70
2018-05-02T07:04:57.369Z,4.90
2018-05-02T07:05:57.366Z,4.70
2018-05-02T07:06:57.363Z,4.80
2018-05-02T07:07:57.364Z,4.80
2018-05-02T07:08:57.367Z,4.30
2018-05-02T07:09:57.357Z,4.40
2018-05-02T07:10:57.358Z,4.30
2018-05-02T07:11:57.359Z,5.00
2018-05-02T07:12:57.357Z,4.70
2018-05-02T07:13:57.352Z,4.70
2018-05-02T07:14:57.352Z,4.80
2018-05-02T07:15:57.351Z,4.20
2018-05-02T07:16:57.347Z,4.60
2018-05-02T07:17:57.345Z,4.60
2018-05-02T07:18:57.346Z,4.30
2018-05-02T07:19:57.343Z,4.40
2018-05-02T07:20:57.345Z,4.20
2018-05-02T07:21:57.341Z,4.50
2018-05-02T07:22:57.339Z,4.50
2018-05-02T07:23:57.420Z,4.30
2018-05-02T07:24:57.340Z,3.90
2018-05-02T07:25:57.338Z,4.20
2018-05-02T07:26:57.336Z,4.10
2018-05-02T07:27:57.340Z,4.20
2018-05-02T07:28:57.337Z,3.90
2018-05-02T07:29:57.343Z,4.20
2018-05-02T07:30:57.334Z,3.90
2018-05-02T07:31:57.334Z,3.70
2018-05-02T07:32:57.469Z,3.40
2018-05-02T07:33:57.335Z,3.60
2018-05-02T07:34:57.336Z,3.90
2018-05-02T07:35:57.337Z,3.60
2018-05-02T07:36:57.336Z,3.60
2018-05-02T07:37:57.338Z,3.70
2018-05-02T07:38:57.338Z,3.70
2018-05-02T07:39:57.336Z,4.00
2018-05-02T07:40:57.336Z,3.60
2018-05-02T07:41:57.339Z,3.60
2018-05-02T07:42:57.341Z,3.80
2018-05-02T07:43:57.339Z,3.70
2018-05-02T07:44:57.338Z,3.80
2018-05-02T07:45:57.338Z,3.60
2018-05-02T07:46:57.346Z,3.40
2018-05-02T07:47:57.339Z,3.40
2018-05-02T07:48:57.341Z,3.50
2018-05-02T07:49:57.343Z,3.80
2018-05-02T07:50:57.345Z,3.60
2018-05-02T07:51:57.344Z,3.60
2018-05-02T07:52:57.349Z,3.90
2018-05-02T07:53:57.344Z,4.20
2018-05-02T07:54:57.344Z,3.60
2018-05-02T07:55:57.348Z,3.60
2018-05-02T07:56:57.350Z,3.80
2018-05-02T07:57:57.349Z,3.90
2018-05-02T07:58:57.396Z,4.10
2018-05-02T07:59:57.349Z,4.00
2018-05-02T08:00:57.348Z,4.30
2018-05-02T08:01:57.351Z,4.20
2018-05-02T08:02:57.349Z,4.10
2018-05-02T08:03:57.352Z,4.30
2018-05-02T08:04:57.355Z,4.40
2018-05-02T08:05:57.364Z,4.20
2018-05-02T08:06:57.352Z,4.10
2018-05-02T08:07:57.354Z,4.10
2018-05-02T08:08:57.359Z,3.90
2018-05-02T08:09:57.357Z,4.00
2018-05-02T08:10:57.405Z,4.30
2018-05-02T08:11:57.357Z,4.00
2018-05-02T08:12:57.373Z,3.80
2018-05-02T08:13:57.363Z,4.40
2018-05-02T08:14:57.363Z,4.30
2018-05-02T08:15:57.365Z,4.50
2018-05-02T08:16:57.373Z,4.60
2018-05-02T08:17:57.368Z,4.80
2018-05-02T08:18:57.368Z,4.30
2018-05-02T08:19:57.369Z,4.50
2018-05-02T08:20:57.371Z,4.40
2018-05-02T08:21:57.376Z,4.60
2018-05-02T08:22:57.377Z,4.40
2018-05-02T08:23:57.376Z,4.40
2018-05-02T08:24:57.377Z,4.70
2018-05-02T08:25:57.377Z,4.60
2018-05-02T08:26:57.403Z,4.70
2018-05-02T08:27:57.385Z,4.50
2018-05-02T08:28:57.383Z,4.50
2018-05-02T08:29:57.384Z,4.80
2018-05-02T08:30:57.382Z,4.70
2018-05-02T08:31:57.389Z,4.60
2018-05-02T08:32:57.420Z,4.60
2018-05-02T08:33:57.388Z,4.70
2018-05-02T08:34:57.389Z,4.70
2018-05-02T08:35:57.391Z,4.70
2018-05-02T08:36:57.393Z,4.50
2018-05-02T08:37:57.399Z,4.90
2018-05-02T08:38:57.412Z,4.50
2018-05-02T08:39:57.393Z,4.70
2018-05-02T08:40:57.400Z,4.50
2018-05-02T08:41:57.404Z,4.80
2018-05-02T08:42:57.403Z,4.80
2018-05-02T08:43:57.405Z,4.90
2018-05-02T08:44:57.407Z,4.70
2018-05-02T08:45:57.409Z,4.80
2018-05-02T08:46:57.413Z,4.80
2018-05-02T08:47:57.411Z,4.50
2018-05-02T08:48:57.416Z,4.80
2018-05-02T08:49:57.463Z,4.60
2018-05-02T08:50:57.415Z,4.80
2018-05-02T08:51:57.414Z,4.80
2018-05-02T08:52:57.419Z,5.00
2018-05-02T08:53:57.422Z,4.80
2018-05-02T08:54:57.422Z,4.80
2018-05-02T08:55:57.423Z,5.10
2018-05-02T08:56:57.425Z,5.40
2018-05-02T08:57:57.426Z,5.00
2018-05-02T08:58:57.421Z,4.90
2018-05-02T08:59:57.427Z,4.80
2018-05-02T09:00:57.429Z,4.80
2018-05-02T09:01:57.436Z,4.70
2018-05-02T09:02:57.429Z,4.80
2018-05-02T09:03:57.432Z,4.70
2018-05-02T09:04:57.432Z,4.70
2018-05-02T09:05:57.434Z,4.70
2018-05-02T09:06:57.435Z,4.60
2018-05-02T09:07:57.435Z,4.80
2018-05-02T09:08:57.516Z,4.60
2018-05-02T09:09:57.438Z,4.60
2018-05-02T09:10:57.437Z,4.20
2018-05-02T09:11:57.440Z,4.10
2018-05-02T09:12:57.440Z,4.90
2018-05-02T09:13:57.440Z,4.60
2018-05-02T09:14:57.442Z,4.40
2018-05-02T09:15:57.442Z,4.50
2018-05-02T09:16:57.442Z,4.70
2018-05-02T09:17:57.444Z,4.60
2018-05-02T09:18:57.505Z,4.70
2018-05-02T09:19:57.445Z,4.80
2018-05-02T09:20:57.446Z,4.50
2018-05-02T09:21:57.446Z,4.40
2018-05-02T09:22:57.496Z,4.40
2018-05-02T09:23:57.447Z,4.20
2018-05-02T09:24:57.448Z,4.70
2018-05-02T09:25:57.449Z,4.50
2018-05-02T09:26:57.448Z,4.00
2018-05-02T09:27:57.449Z,4.00
2018-05-02T09:28:57.450Z,4.30
2018-05-02T09:29:57.450Z,4.00
2018-05-02T09:30:57.450Z,4.30
2018-05-02T09:31:57.454Z,4.10
2018-05-02T09:32:57.452Z,4.20
2018-05-02T09:33:57.454Z,3.70
2018-05-02T09:34:57.452Z,3.60
2018-05-02T09:35:57.496Z,4.10
2018-05-02T09:36:57.452Z,4.00
2018-05-02T09:37:57.455Z,3.80
2018-05-02T09:38:57.453Z,3.90
2018-05-02T09:39:57.452Z,4.20
2018-05-02T09:40:57.455Z,4.20
2018-05-02T09:41:57.458Z,4.00
2018-05-02T09:42:57.501Z,4.30
2018-05-02T09:43:57.453Z,4.10
2018-05-02T09:44:57.449Z,4.30
2018-05-02T09:45:57.456Z,4.40
2018-05-02T09:46:57.454Z,4.10
2018-05-02T09:47:57.455Z,4.10
2018-05-02T09:48:57.458Z,4.10
2018-05-02T09:49:57.455Z,4.70
2018-05-02T09:50:57.456Z,4.20
2018-05-02T09:51:57.464Z,4.30
2018-05-02T09:52:57.456Z,4.20
2018-05-02T09:53:57.461Z,4.10
2018-05-02T09:54:57.457Z,4.40
2018-05-02T09:55:57.454Z,3.90
2018-05-02T09:56:57.455Z,4.10
2018-05-02T09:57:57.454Z,3.90
2018-05-02T09:58:57.456Z,3.70
2018-05-02T09:59:57.457Z,4.10
2018-05-02T10:00:57.487Z,3.80
2018-05-02T10:01:57.453Z,3.70
2018-05-02T10:02:57.452Z,3.40
2018-05-02T10:03:57.451Z,3.70
2018-05-02T10:04:57.452Z,3.90
2018-05-02T10:05:57.454Z,3.70
2018-05-02T10:06:57.449Z,4.00
2018-05-02T10:07:57.449Z,3.60
2018-05-02T10:08:57.453Z,3.60
2018-05-02T10:09:57.453Z,3.30
2018-05-02T10:10:57.447Z,3.30
2018-05-02T10:11:57.449Z,3.40
2018-05-02T10:12:57.450Z,3.60
2018-05-02T10:13:57.447Z,3.70
2018-05-02T10:14:57.448Z,3.70
2018-05-02T10:15:57.446Z,3.80
2018-05-02T10:16:57.450Z,3.50
2018-05-02T10:17:57.446Z,3.90
2018-05-02T10:18:57.443Z,3.90
2018-05-02T10:19:57.445Z,3.70
2018-05-02T10:20:57.447Z,3.80
2018-05-02T10:21:57.446Z,3.90
2018-05-02T10:22:57.489Z,3.90
2018-05-02T10:23:57.443Z,4.10
2018-05-02T10:24:57.441Z,4.10
2018-05-02T10:25:57.442Z,3.70
2018-05-02T10:26:57.440Z,4.00
2018-05-02T10:27:57.435Z,4.00
2018-05-02T10:28:57.439Z,4.10
2018-05-02T10:29:57.436Z,4.10
2018-05-02T10:30:57.437Z,3.90
2018-05-02T10:31:57.481Z,4.00
2018-05-02T10:32:57.434Z,4.30
2018-05-02T10:33:57.434Z,4.00
2018-05-02T10:34:57.434Z,4.40
2018-05-02T10:35:57.432Z,4.00
2018-05-02T10:36:57.452Z,3.90
2018-05-02T10:37:57.430Z,4.20
2018-05-02T10:38:57.428Z,4.00
2018-05-02T10:39:57.428Z,4.20
2018-05-02T10:40:57.428Z,4.20
2018-05-02T10:41:57.421Z,4.10
2018-05-02T10:42:57.435Z,3.90
2018-05-02T10:43:57.423Z,4.00
2018-05-02T10:44:57.422Z,4.00
2018-05-02T10:45:57.419Z,3.80
2018-05-02T10:46:57.420Z,3.60
2018-05-02T10:47:57.421Z,3.80
2018-05-02T10:48:57.419Z,3.80
2018-05-02T10:49:57.417Z,3.80
2018-05-02T10:50:57.418Z,4.20
2018-05-02T10:51:57.417Z,4.40
2018-05-02T10:52:57.529Z,4.00
2018-05-02T10:53:57.415Z,3.90
2018-05-02T10:54:57.413Z,3.70
2018-05-02T10:55:57.491Z,4.10
2018-05-02T10:56:57.411Z,3.80
2018-05-02T10:57:57.411Z,3.80
2018-05-02T10:58:57.407Z,3.90
2018-05-02T10:59:57.412Z,3.90
2018-05-02T11:00:57.407Z,3.70
2018-05-02T11:01:57.407Z,3.70
2018-05-02T11:02:57.403Z,3.80
2018-05-02T11:03:57.405Z,3.60
2018-05-02T11:04:57.655Z,3.80
2018-05-02T11:05:57.413Z,3.80
2018-05-02T11:06:57.404Z,3.90
2018-05-02T11:07:57.402Z,3.80
2018-05-02T11:08:57.401Z,4.00
2018-05-02T11:09:57.399Z,3.70
2018-05-02T11:10:57.399Z,3.80
2018-05-02T11:11:57.399Z,3.70
2018-05-02T11:12:57.395Z,3.90
2018-05-02T11:13:57.406Z,3.70
2018-05-02T11:14:57.397Z,3.70
2018-05-02T11:15:57.424Z,4.00
2018-05-02T11:16:57.395Z,4.00
2018-05-02T11:17:57.401Z,3.90
2018-05-02T11:18:57.396Z,4.10
2018-05-02T11:19:57.393Z,3.80
2018-05-02T11:20:57.393Z,3.80
2018-05-02T11:21:57.424Z,3.90
2018-05-02T11:22:57.401Z,3.80
2018-05-02T11:23:57.396Z,3.80
2018-05-02T11:24:57.393Z,3.80
2018-05-02T11:25:57.397Z,4.00
2018-05-02T11:26:57.391Z,3.80
2018-05-02T11:27:57.392Z,3.60
2018-05-02T11:28:57.557Z,3.80
2018-05-02T11:29:57.393Z,4.10
2018-05-02T11:30:57.388Z,4.00
2018-05-02T11:31:57.388Z,3.90
2018-05-02T11:32:57.388Z,3.90
2018-05-02T11:33:57.391Z,4.20
2018-05-02T11:34:57.386Z,4.10
2018-05-02T11:35:57.388Z,4.30
2018-05-02T11:36:57.387Z,4.30
2018-05-02T11:37:57.394Z,4.00
2018-05-02T11:38:57.388Z,4.00
2018-05-02T11:39:57.384Z,4.50
2018-05-02T11:40:57.386Z,4.30
2018-05-02T11:41:57.387Z,4.20
2018-05-02T11:42:57.387Z,4.30
2018-05-02T11:43:57.386Z,4.20
2018-05-02T11:44:57.385Z,4.20
2018-05-02T11:45:57.386Z,4.10
2018-05-02T11:46:57.389Z,4.00
2018-05-02T11:47:57.387Z,4.00
2018-05-02T11:48:57.384Z,4.00
2018-05-02T11:49:57.384Z,4.20
2018-05-02T11:50:57.383Z,4.00
2018-05-02T11:51:57.384Z,4.00
2018-05-02T11:52:57.384Z,3.90
2018-05-02T11:53:57.385Z,4.00
2018-05-02T11:54:57.383Z,4.00
2018-05-02T11:55:57.382Z,4.30
2018-05-02T11:56:57.387Z,4.60
2018-05-02T11:57:57.383Z,3.90
2018-05-02T11:58:57.381Z,3.70
2018-05-02T11:59:57.382Z,3.80
2018-05-02T12:00:57.383Z,3.20
2018-05-02T12:01:57.390Z,3.20
2018-05-02T12:02:57.380Z,3.10
2018-05-02T12:03:57.381Z,3.10
2018-05-02T12:04:57.382Z,3.10
2018-05-02T12:05:57.383Z,2.90
2018-05-02T12:06:57.381Z,2.90
2018-05-02T12:07:57.380Z,2.60
2018-05-02T12:08:57.384Z,2.70
2018-05-02T12:09:57.381Z,2.80
2018-05-02T12:10:57.376Z,2.60
2018-05-02T12:11:57.394Z,2.30
2018-05-02T12:12:57.445Z,2.50
2018-05-02T12:13:57.377Z,2.50
2018-05-02T12:14:57.375Z,2.40
2018-05-02T12:15:57.376Z,2.40
2018-05-02T12:16:57.377Z,2.10
2018-05-02T12:17:57.374Z,2.30
2018-05-02T12:18:57.493Z,2.00
2018-05-02T12:19:57.373Z,2.20
2018-05-02T12:20:57.373Z,2.00
2018-05-02T12:21:57.397Z,2.20
2018-05-02T12:22:57.374Z,2.40
2018-05-02T12:23:57.371Z,2.30
2018-05-02T12:24:57.369Z,2.20
2018-05-02T12:25:57.370Z,2.30
2018-05-02T12:26:57.370Z,2.10
2018-05-02T12:27:57.369Z,2.10
2018-05-02T12:28:57.373Z,2.40
2018-05-02T12:29:57.368Z,2.50
2018-05-02T12:30:57.363Z,2.60
2018-05-02T12:31:57.392Z,2.40
2018-05-02T12:32:57.369Z,2.40
2018-05-02T12:33:57.363Z,2.50
2018-05-02T12:34:57.362Z,2.70
2018-05-02T12:35:57.363Z,2.80
2018-05-02T12:36:57.363Z,3.20
2018-05-02T12:37:57.362Z,2.80
2018-05-02T12:38:57.361Z,3.00
2018-05-02T12:39:57.360Z,2.70
2018-05-02T12:40:57.363Z,2.80
2018-05-02T12:41:57.360Z,2.80
2018-05-02T12:42:57.357Z,2.60
2018-05-02T12:43:57.357Z,2.40
2018-05-02T12:44:57.357Z,2.50
2018-05-02T12:45:57.353Z,2.60
2018-05-02T12:46:57.354Z,2.40
2018-05-02T12:47:57.354Z,2.50
2018-05-02T12:48:57.352Z,2.50
2018-05-02T12:49:57.353Z,2.50
2018-05-02T12:50:57.348Z,2.60
2018-05-02T12:51:57.348Z,2.70
2018-05-02T12:52:57.345Z,2.80
2018-05-02T12:53:57.348Z,2.70
2018-05-02T12:54:57.345Z,2.80
2018-05-02T12:55:57.372Z,3.00
2018-05-02T12:56:57.344Z,3.10
2018-05-02T12:57:57.343Z,3.00
2018-05-02T12:58:57.340Z,2.90
2018-05-02T12:59:57.339Z,3.00
2018-05-02T13:00:57.340Z,2.80
2018-05-02T13:01:57.337Z,2.80
2018-05-02T13:02:57.333Z,3.00
2018-05-02T13:03:57.337Z,3.20
2018-05-02T13:04:57.338Z,3.00
2018-05-02T13:05:57.332Z,3.10
2018-05-02T13:06:57.412Z,3.00
2018-05-02T13:07:57.340Z,2.90
2018-05-02T13:08:57.327Z,2.90
2018-05-02T13:09:57.328Z,2.80
2018-05-02T13:10:57.327Z,2.80
2018-05-02T13:11:57.324Z,2.90
2018-05-02T13:12:57.322Z,2.70
2018-05-02T13:13:57.452Z,2.50
2018-05-02T13:14:57.340Z,2.80
2018-05-02T13:15:57.322Z,2.90
2018-05-02T13:16:57.324Z,2.70
2018-05-02T13:17:57.314Z,2.70
2018-05-02T13:18:57.315Z,2.70